createdAt,value
2022-10-23T00:06:59.430Z,16.90
2022-10-23T00:15:23.041Z,16.40
2022-10-23T00:23:46.480Z,14.90
2022-10-23T00:32:09.251Z,13.80
2022-10-23T00:40:32.417Z,14.30
2022-10-23T00:48:55.937Z,14.00
2022-10-23T00:57:19.042Z,13.70
2022-10-23T01:05:50.255Z,15.00
2022-10-23T01:14:47.372Z,13.80
2022-10-23T01:23:27.985Z,13.70
2022-10-23T01:32:15.121Z,14.50
2022-10-23T01:40:48.732Z,13.20
2022-10-23T01:49:14.100Z,13.60
2022-10-23T01:57:40.630Z,15.10
2022-10-23T02:06:04.119Z,15.40
2022-10-23T02:14:50.223Z,14.20
2022-10-23T02:23:22.478Z,14.90
2022-10-23T02:31:45.691Z,14.20
2022-10-23T02:40:10.063Z,14.00
2022-10-23T02:48:49.235Z,12.60
2022-10-23T02:57:33.032Z,14.90
2022-10-23T03:05:56.385Z,13.70
2022-10-23T03:14:19.668Z,13.70
2022-10-23T03:22:42.734Z,13.90
2022-10-23T03:31:05.982Z,12.10
2022-10-23T03:39:29.000Z,12.50
2022-10-23T03:47:52.979Z,14.90
2022-10-23T03:56:15.826Z,13.70
2022-10-23T04:04:38.739Z,12.90
2022-10-23T04:13:01.636Z,15.70
2022-10-23T04:21:28.618Z,14.50
2022-10-23T04:29:54.261Z,14.50
2022-10-23T04:46:43.190Z,16.20
2022-10-23T04:55:07.852Z,15.60
2022-10-23T05:03:41.146Z,15.20
2022-10-23T05:12:04.378Z,16.50
2022-10-23T05:20:33.769Z,16.40
2022-10-23T05:28:56.964Z,18.40
2022-10-23T05:37:20.159Z,21.30
2022-10-23T05:45:43.548Z,16.60
2022-10-23T05:54:18.289Z,18.20
2022-10-23T06:03:10.056Z,18.30
2022-10-23T06:11:34.906Z,19.30
2022-10-23T06:20:02.623Z,18.90
2022-10-23T06:28:28.488Z,17.90
2022-10-23T06:36:51.429Z,19.00
2022-10-23T06:45:43.388Z,17.80
2022-10-23T06:54:11.303Z,16.00
2022-10-23T07:02:43.182Z,16.00
2022-10-23T07:11:08.431Z,14.90
2022-10-23T07:19:31.617Z,14.90
2022-10-23T07:27:59.641Z,14.60
2022-10-23T07:36:25.150Z,15.70
2022-10-23T07:44:48.322Z,15.90
2022-10-23T07:53:17.993Z,13.20
2022-10-23T08:01:47.352Z,13.80
2022-10-23T08:10:10.576Z,12.30
2022-10-23T08:18:33.958Z,12.40
2022-10-23T08:26:58.705Z,10.20
2022-10-23T08:35:22.020Z,10.10
2022-10-23T08:43:54.705Z,14.60
2022-10-23T08:52:32.233Z,11.60
2022-10-23T09:00:55.258Z,31.50
2022-10-23T09:09:39.618Z,11.20
2022-10-23T09:18:12.536Z,22.00
2022-10-23T09:26:35.460Z,12.40
2022-10-23T09:34:58.214Z,11.60
2022-10-23T09:43:24.109Z,13.10
2022-10-23T09:52:08.204Z,14.80
2022-10-23T10:00:31.144Z,12.10
2022-10-23T10:08:59.406Z,10.70
2022-10-23T10:17:47.061Z,13.60
2022-10-23T10:34:49.340Z,9.60
2022-10-23T10:43:21.093Z,14.80
2022-10-23T10:52:02.303Z,8.70
2022-10-23T11:00:26.261Z,7.20
2022-10-23T11:08:57.563Z,7.00
2022-10-23T11:17:37.380Z,7.40
2022-10-23T11:26:03.225Z,7.10
2022-10-23T11:34:53.672Z,6.90
2022-10-23T11:43:49.251Z,8.20
2022-10-23T11:52:30.544Z,7.80
2022-10-23T12:01:02.710Z,7.80
2022-10-23T12:09:43.494Z,7.90
2022-10-23T12:18:24.666Z,7.40
2022-10-23T12:27:02.652Z,7.60
2022-10-23T12:35:49.044Z,7.70
2022-10-23T12:52:40.673Z,5.00
2022-10-23T13:01:08.459Z,12.20
2022-10-23T13:09:48.369Z,4.90
2022-10-23T13:18:23.862Z,5.10
2022-10-23T13:27:06.959Z,5.00
2022-10-23T13:35:40.597Z,5.40
2022-10-23T13:44:16.236Z,5.30
2022-10-23T13:52:47.667Z,4.30
2022-10-23T14:01:29.401Z,5.40
2022-10-23T14:09:59.437Z,5.20
2022-10-23T14:18:30.835Z,4.40
2022-10-23T14:27:07.974Z,6.80
2022-10-23T14:35:48.608Z,4.70
2022-10-23T14:44:17.117Z,4.10
2022-10-23T14:52:47.080Z,4.60
2022-10-23T15:01:15.617Z,4.70
2022-10-23T15:09:46.191Z,5.00
2022-10-23T15:18:19.312Z,6.20
2022-10-23T15:26:48.552Z,6.50
2022-10-23T15:35:19.840Z,15.40
2022-10-23T15:43:52.150Z,13.70
2022-10-23T15:52:26.339Z,7.40
2022-10-23T16:00:54.644Z,10.10
2022-10-23T16:09:23.405Z,13.40
2022-10-23T16:17:53.838Z,5.30
2022-10-23T16:26:33.669Z,6.80
2022-10-23T16:35:03.476Z,6.50
2022-10-23T16:43:41.417Z,12.80
2022-10-23T16:52:30.938Z,6.50
2022-10-23T17:01:02.532Z,15.20
2022-10-23T17:09:27.614Z,28.90
2022-10-23T17:17:50.449Z,17.40
2022-10-23T17:26:17.480Z,11.60
2022-10-23T17:34:40.260Z,12.10
2022-10-23T17:43:04.400Z,18.10
2022-10-23T17:51:32.544Z,14.80
2022-10-23T17:59:55.468Z,17.20
2022-10-23T18:08:18.252Z,22.90
2022-10-23T18:16:41.051Z,18.00
2022-10-23T18:25:04.842Z,26.30
2022-10-23T18:33:27.652Z,35.30
2022-10-23T18:41:53.926Z,53.30
2022-10-23T18:50:17.067Z,35.60
2022-10-23T18:58:39.857Z,36.40
2022-10-23T19:07:02.620Z,33.30
2022-10-23T19:15:25.696Z,55.20
2022-10-23T19:23:49.850Z,50.80
2022-10-23T19:32:12.885Z,53.40
2022-10-23T19:40:36.056Z,57.60
2022-10-23T19:48:58.979Z,57.40
2022-10-23T19:57:22.653Z,71.50
2022-10-23T20:05:46.034Z,84.40
2022-10-23T20:14:08.919Z,79.00
2022-10-23T20:22:32.001Z,87.70
2022-10-23T20:30:54.814Z,70.70
2022-10-23T20:39:25.591Z,67.60
2022-10-23T20:47:48.749Z,66.60
2022-10-23T20:56:19.612Z,75.20
2022-10-23T21:04:42.510Z,72.50
2022-10-23T21:13:05.325Z,69.10
2022-10-23T21:21:29.264Z,69.70
2022-10-23T21:29:52.057Z,56.60
2022-10-23T21:38:14.892Z,61.20
2022-10-23T21:46:37.737Z,53.30
2022-10-23T21:55:00.438Z,43.50
2022-10-23T22:03:23.362Z,39.80
2022-10-23T22:11:46.192Z,39.70
2022-10-23T22:20:09.178Z,37.40
2022-10-23T22:28:31.953Z,33.70
2022-10-23T22:36:55.118Z,40.40
2022-10-23T22:45:17.917Z,40.20
2022-10-23T22:53:41.354Z,37.90
2022-10-23T23:02:04.474Z,41.60
2022-10-23T23:10:27.210Z,48.20
2022-10-23T23:18:50.778Z,46.20
2022-10-23T23:27:13.535Z,38.50
2022-10-23T23:35:41.202Z,28.90
2022-10-23T23:44:04.126Z,26.70
2022-10-23T23:52:26.894Z,24.10
